sensor_id;sensor_type;location;lat;lon;timestamp;pressure;altitude;pressure_sealevel;temperature
35582;BMP180;21687;48.900;9.188;2023-02-01T00:02:00;99057.00;;;3.80
35582;BMP180;21687;48.900;9.188;2023-02-01T00:04:46;99056.00;;;3.80
35582;BMP180;21687;48.900;9.188;2023-02-01T00:07:33;99044.00;;;3.70
35582;BMP180;21687;48.900;9.188;2023-02-01T00:10:19;99055.00;;;3.70
35582;BMP180;21687;48.900;9.188;2023-02-01T00:13:06;99048.00;;;3.70
35582;BMP180;21687;48.900;9.188;2023-02-01T00:15:52;99031.00;;;3.70
35582;BMP180;21687;48.900;9.188;2023-02-01T00:18:39;99038.00;;;3.60
35582;BMP180;21687;48.900;9.188;2023-02-01T00:21:25;99021.00;;;3.60
35582;BMP180;21687;48.900;9.188;2023-02-01T00:24:12;99011.00;;;3.50
35582;BMP180;21687;48.900;9.188;2023-02-01T00:26:58;99016.00;;;3.50
35582;BMP180;21687;48.900;9.188;2023-02-01T00:29:45;99029.00;;;3.50
35582;BMP180;21687;48.900;9.188;2023-02-01T00:32:31;99032.00;;;3.50
35582;BMP180;21687;48.900;9.188;2023-02-01T00:35:18;99029.00;;;3.50
35582;BMP180;21687;48.900;9.188;2023-02-01T00:38:04;98985.00;;;3.50
35582;BMP180;21687;48.900;9.188;2023-02-01T00:40:51;99028.00;;;3.40
35582;BMP180;21687;48.900;9.188;2023-02-01T00:43:38;99031.00;;;3.40
35582;BMP180;21687;48.900;9.188;2023-02-01T00:46:24;99025.00;;;3.40
35582;BMP180;21687;48.900;9.188;2023-02-01T00:49:11;99012.00;;;3.40
35582;BMP180;21687;48.900;9.188;2023-02-01T00:51:58;98978.00;;;3.40
35582;BMP180;21687;48.900;9.188;2023-02-01T00:54:44;98958.00;;;3.30
35582;BMP180;21687;48.900;9.188;2023-02-01T00:57:31;98954.00;;;3.20
35582;BMP180;21687;48.900;9.188;2023-02-01T01:00:18;98953.00;;;3.20
35582;BMP180;21687;48.900;9.188;2023-02-01T01:03:05;98960.00;;;3.10
35582;BMP180;21687;48.900;9.188;2023-02-01T01:06:07;98961.00;;;3.10
35582;BMP180;21687;48.900;9.188;2023-02-01T01:08:55;98959.00;;;3.00
35582;BMP180;21687;48.900;9.188;2023-02-01T01:11:42;98968.00;;;3.00
35582;BMP180;21687;48.900;9.188;2023-02-01T01:14:32;98968.00;;;3.00
35582;BMP180;21687;48.900;9.188;2023-02-01T01:17:19;98968.00;;;3.10
35582;BMP180;21687;48.900;9.188;2023-02-01T01:20:05;98976.00;;;3.10
35582;BMP180;21687;48.900;9.188;2023-02-01T01:22:52;98962.00;;;3.20
35582;BMP180;21687;48.900;9.188;2023-02-01T01:25:39;98981.00;;;3.20
35582;BMP180;21687;48.900;9.188;2023-02-01T01:28:26;98980.00;;;3.20
35582;BMP180;21687;48.900;9.188;2023-02-01T01:31:13;98993.00;;;3.30
35582;BMP180;21687;48.900;9.188;2023-02-01T01:34:00;98990.00;;;3.30
35582;BMP180;21687;48.900;9.188;2023-02-01T01:36:46;98987.00;;;3.40
35582;BMP180;21687;48.900;9.188;2023-02-01T01:39:33;98995.00;;;3.40
35582;BMP180;21687;48.900;9.188;2023-02-01T01:42:19;98998.00;;;3.40
35582;BMP180;21687;48.900;9.188;2023-02-01T01:45:29;98991.00;;;3.30
35582;BMP180;21687;48.900;9.188;2023-02-01T01:48:24;98995.00;;;3.30
35582;BMP180;21687;48.900;9.188;2023-02-01T01:51:13;98982.00;;;3.40
35582;BMP180;21687;48.900;9.188;2023-02-01T01:54:17;98984.00;;;3.40
35582;BMP180;21687;48.900;9.188;2023-02-01T01:57:08;98977.00;;;3.40
35582;BMP180;21687;48.900;9.188;2023-02-01T02:00:16;98981.00;;;3.40
35582;BMP180;21687;48.900;9.188;2023-02-01T02:03:35;98986.00;;;3.50
35582;BMP180;21687;48.900;9.188;2023-02-01T02:06:37;98989.00;;;3.40
35582;BMP180;21687;48.900;9.188;2023-02-01T02:09:25;98992.00;;;3.50
35582;BMP180;21687;48.900;9.188;2023-02-01T02:12:11;98982.00;;;3.50
35582;BMP180;21687;48.900;9.188;2023-02-01T02:14:58;98975.00;;;3.50
35582;BMP180;21687;48.900;9.188;2023-02-01T02:18:09;98980.00;;;3.50
35582;BMP180;21687;48.900;9.188;2023-02-01T02:24:24;98972.00;;;3.50
35582;BMP180;21687;48.900;9.188;2023-02-01T02:27:33;98985.00;;;3.50
35582;BMP180;21687;48.900;9.188;2023-02-01T02:49:58;98967.00;;;3.60
35582;BMP180;21687;48.900;9.188;2023-02-01T02:53:11;98968.00;;;3.50
35582;BMP180;21687;48.900;9.188;2023-02-01T02:56:19;98970.00;;;3.60
35582;BMP180;21687;48.900;9.188;2023-02-01T02:59:26;98961.00;;;3.60
35582;BMP180;21687;48.900;9.188;2023-02-01T03:02:33;98965.00;;;3.60
35582;BMP180;21687;48.900;9.188;2023-02-01T03:05:43;98958.00;;;3.60
35582;BMP180;21687;48.900;9.188;2023-02-01T03:08:30;98958.00;;;3.60
35582;BMP180;21687;48.900;9.188;2023-02-01T03:11:17;98963.00;;;3.60
35582;BMP180;21687;48.900;9.188;2023-02-01T03:14:05;98941.00;;;3.50
35582;BMP180;21687;48.900;9.188;2023-02-01T03:16:57;98925.00;;;3.50
35582;BMP180;21687;48.900;9.188;2023-02-01T03:19:48;98924.00;;;3.40
35582;BMP180;21687;48.900;9.188;2023-02-01T03:22:38;98909.00;;;3.40
35582;BMP180;21687;48.900;9.188;2023-02-01T03:25:29;98909.00;;;3.40
35582;BMP180;21687;48.900;9.188;2023-02-01T03:28:18;98903.00;;;3.50
35582;BMP180;21687;48.900;9.188;2023-02-01T03:31:07;98887.00;;;3.40
35582;BMP180;21687;48.900;9.188;2023-02-01T03:33:54;98895.00;;;3.50
35582;BMP180;21687;48.900;9.188;2023-02-01T03:36:46;98883.00;;;3.40
35582;BMP180;21687;48.900;9.188;2023-02-01T03:39:47;98899.00;;;3.50
35582;BMP180;21687;48.900;9.188;2023-02-01T03:42:35;98904.00;;;3.50
35582;BMP180;21687;48.900;9.188;2023-02-01T03:45:31;98898.00;;;3.50
35582;BMP180;21687;48.900;9.188;2023-02-01T03:48:21;98896.00;;;3.50
35582;BMP180;21687;48.900;9.188;2023-02-01T03:51:10;98901.00;;;3.50
35582;BMP180;21687;48.900;9.188;2023-02-01T03:53:57;98909.00;;;3.60
35582;BMP180;21687;48.900;9.188;2023-02-01T03:56:46;98906.00;;;3.60
35582;BMP180;21687;48.900;9.188;2023-02-01T03:59:33;98910.00;;;3.70
35582;BMP180;21687;48.900;9.188;2023-02-01T04:02:20;98909.00;;;3.60
35582;BMP180;21687;48.900;9.188;2023-02-01T04:05:06;98900.00;;;3.60
35582;BMP180;21687;48.900;9.188;2023-02-01T04:07:53;98906.00;;;3.70
35582;BMP180;21687;48.900;9.188;2023-02-01T04:10:40;98882.00;;;3.50
35582;BMP180;21687;48.900;9.188;2023-02-01T04:13:26;98880.00;;;3.50
35582;BMP180;21687;48.900;9.188;2023-02-01T04:16:13;98867.00;;;3.40
35582;BMP180;21687;48.900;9.188;2023-02-01T04:19:00;98879.00;;;3.30
35582;BMP180;21687;48.900;9.188;2023-02-01T04:21:47;98875.00;;;3.20
35582;BMP180;21687;48.900;9.188;2023-02-01T04:24:33;98881.00;;;3.40
35582;BMP180;21687;48.900;9.188;2023-02-01T04:27:20;98891.00;;;3.40
35582;BMP180;21687;48.900;9.188;2023-02-01T04:30:07;98889.00;;;3.50
35582;BMP180;21687;48.900;9.188;2023-02-01T04:32:56;98899.00;;;3.60
35582;BMP180;21687;48.900;9.188;2023-02-01T04:35:43;98904.00;;;3.60
35582;BMP180;21687;48.900;9.188;2023-02-01T04:38:29;98905.00;;;3.70
35582;BMP180;21687;48.900;9.188;2023-02-01T04:41:19;98904.00;;;3.80
35582;BMP180;21687;48.900;9.188;2023-02-01T04:44:05;98898.00;;;3.80
35582;BMP180;21687;48.900;9.188;2023-02-01T04:46:52;98896.00;;;3.90
35582;BMP180;21687;48.900;9.188;2023-02-01T04:49:38;98884.00;;;3.90
35582;BMP180;21687;48.900;9.188;2023-02-01T04:52:25;98881.00;;;3.80
35582;BMP180;21687;48.900;9.188;2023-02-01T04:55:11;98863.00;;;3.80
35582;BMP180;21687;48.900;9.188;2023-02-01T04:57:59;98863.00;;;3.80
35582;BMP180;21687;48.900;9.188;2023-02-01T05:00:45;98855.00;;;3.70
35582;BMP180;21687;48.900;9.188;2023-02-01T05:03:35;98871.00;;;3.70
35582;BMP180;21687;48.900;9.188;2023-02-01T05:06:22;98886.00;;;3.70
35582;BMP180;21687;48.900;9.188;2023-02-01T05:09:09;98868.00;;;3.70
35582;BMP180;21687;48.900;9.188;2023-02-01T05:11:55;98873.00;;;3.70
35582;BMP180;21687;48.900;9.188;2023-02-01T05:15:00;98890.00;;;3.80
35582;BMP180;21687;48.900;9.188;2023-02-01T05:17:47;98876.00;;;3.80
35582;BMP180;21687;48.900;9.188;2023-02-01T05:20:33;98881.00;;;3.70
35582;BMP180;21687;48.900;9.188;2023-02-01T05:23:19;98879.00;;;3.80
35582;BMP180;21687;48.900;9.188;2023-02-01T05:26:06;98889.00;;;3.80
35582;BMP180;21687;48.900;9.188;2023-02-01T05:28:52;98898.00;;;3.80
35582;BMP180;21687;48.900;9.188;2023-02-01T05:31:39;98858.00;;;3.80
35582;BMP180;21687;48.900;9.188;2023-02-01T05:34:26;98870.00;;;3.90
35582;BMP180;21687;48.900;9.188;2023-02-01T05:37:12;98859.00;;;4.00
35582;BMP180;21687;48.900;9.188;2023-02-01T05:39:59;98871.00;;;4.10
35582;BMP180;21687;48.900;9.188;2023-02-01T05:42:45;98874.00;;;4.10
35582;BMP180;21687;48.900;9.188;2023-02-01T05:45:32;98880.00;;;4.10
35582;BMP180;21687;48.900;9.188;2023-02-01T05:48:18;98870.00;;;4.20
35582;BMP180;21687;48.900;9.188;2023-02-01T05:51:05;98882.00;;;4.20
35582;BMP180;21687;48.900;9.188;2023-02-01T05:53:51;98899.00;;;4.20
35582;BMP180;21687;48.900;9.188;2023-02-01T05:56:38;98891.00;;;4.30
35582;BMP180;21687;48.900;9.188;2023-02-01T05:59:24;98894.00;;;4.40
35582;BMP180;21687;48.900;9.188;2023-02-01T06:02:12;98900.00;;;4.50
35582;BMP180;21687;48.900;9.188;2023-02-01T06:04:58;98891.00;;;4.50
35582;BMP180;21687;48.900;9.188;2023-02-01T06:07:45;98904.00;;;4.60
35582;BMP180;21687;48.900;9.188;2023-02-01T06:10:31;98903.00;;;4.60
35582;BMP180;21687;48.900;9.188;2023-02-01T06:13:17;98917.00;;;4.60
35582;BMP180;21687;48.900;9.188;2023-02-01T06:16:06;98914.00;;;4.60
35582;BMP180;21687;48.900;9.188;2023-02-01T06:18:53;98920.00;;;4.60
35582;BMP180;21687;48.900;9.188;2023-02-01T06:21:40;98933.00;;;4.50
35582;BMP180;21687;48.900;9.188;2023-02-01T06:24:26;98922.00;;;4.70
35582;BMP180;21687;48.900;9.188;2023-02-01T06:27:13;98881.00;;;4.70
35582;BMP180;21687;48.900;9.188;2023-02-01T06:29:59;98926.00;;;4.70
35582;BMP180;21687;48.900;9.188;2023-02-01T06:32:51;98912.00;;;4.70
35582;BMP180;21687;48.900;9.188;2023-02-01T06:35:43;98916.00;;;4.70
35582;BMP180;21687;48.900;9.188;2023-02-01T06:38:34;98913.00;;;4.70
35582;BMP180;21687;48.900;9.188;2023-02-01T06:41:21;98898.00;;;4.70
35582;BMP180;21687;48.900;9.188;2023-02-01T06:44:07;98907.00;;;4.70
35582;BMP180;21687;48.900;9.188;2023-02-01T06:46:54;98925.00;;;4.60
35582;BMP180;21687;48.900;9.188;2023-02-01T06:49:41;98922.00;;;4.70
35582;BMP180;21687;48.900;9.188;2023-02-01T06:52:27;98924.00;;;4.70
35582;BMP180;21687;48.900;9.188;2023-02-01T06:55:14;98929.00;;;4.70
35582;BMP180;21687;48.900;9.188;2023-02-01T06:58:00;98925.00;;;4.80
35582;BMP180;21687;48.900;9.188;2023-02-01T07:00:48;98945.00;;;4.70
35582;BMP180;21687;48.900;9.188;2023-02-01T07:03:35;98938.00;;;4.70
35582;BMP180;21687;48.900;9.188;2023-02-01T07:06:22;98948.00;;;4.60
35582;BMP180;21687;48.900;9.188;2023-02-01T07:09:09;98960.00;;;4.70
35582;BMP180;21687;48.900;9.188;2023-02-01T07:11:55;98971.00;;;4.70
35582;BMP180;21687;48.900;9.188;2023-02-01T07:14:42;98974.00;;;4.70
35582;BMP180;21687;48.900;9.188;2023-02-01T07:17:31;98960.00;;;4.70
35582;BMP180;21687;48.900;9.188;2023-02-01T07:20:18;98959.00;;;4.70
35582;BMP180;21687;48.900;9.188;2023-02-01T07:23:04;98970.00;;;4.80
35582;BMP180;21687;48.900;9.188;2023-02-01T07:25:59;98964.00;;;4.80
35582;BMP180;21687;48.900;9.188;2023-02-01T07:28:46;98967.00;;;4.70
35582;BMP180;21687;48.900;9.188;2023-02-01T07:31:33;98972.00;;;4.80
35582;BMP180;21687;48.900;9.188;2023-02-01T07:34:19;98975.00;;;4.80
35582;BMP180;21687;48.900;9.188;2023-02-01T07:37:06;98974.00;;;4.70
35582;BMP180;21687;48.900;9.188;2023-02-01T07:39:52;98972.00;;;4.70
35582;BMP180;21687;48.900;9.188;2023-02-01T07:42:39;98975.00;;;4.70
35582;BMP180;21687;48.900;9.188;2023-02-01T07:45:25;98968.00;;;4.80
35582;BMP180;21687;48.900;9.188;2023-02-01T07:48:12;98970.00;;;4.90
35582;BMP180;21687;48.900;9.188;2023-02-01T07:51:06;98968.00;;;4.90
35582;BMP180;21687;48.900;9.188;2023-02-01T07:53:54;98975.00;;;4.90
35582;BMP180;21687;48.900;9.188;2023-02-01T07:56:40;98961.00;;;4.90
35582;BMP180;21687;48.900;9.188;2023-02-01T07:59:27;98971.00;;;4.80
35582;BMP180;21687;48.900;9.188;2023-02-01T08:02:13;98969.00;;;4.80
35582;BMP180;21687;48.900;9.188;2023-02-01T08:05:00;98964.00;;;4.90
35582;BMP180;21687;48.900;9.188;2023-02-01T08:07:49;98955.00;;;4.90
35582;BMP180;21687;48.900;9.188;2023-02-01T08:10:36;98953.00;;;4.90
35582;BMP180;21687;48.900;9.188;2023-02-01T08:13:22;98967.00;;;5.00
35582;BMP180;21687;48.900;9.188;2023-02-01T08:16:13;98969.00;;;5.00
35582;BMP180;21687;48.900;9.188;2023-02-01T08:19:00;98948.00;;;5.10
35582;BMP180;21687;48.900;9.188;2023-02-01T08:21:47;98955.00;;;5.20
35582;BMP180;21687;48.900;9.188;2023-02-01T08:24:35;98971.00;;;5.20
35582;BMP180;21687;48.900;9.188;2023-02-01T08:27:21;98966.00;;;5.30
35582;BMP180;21687;48.900;9.188;2023-02-01T08:30:08;98977.00;;;5.40
35582;BMP180;21687;48.900;9.188;2023-02-01T08:32:55;98980.00;;;5.50
35582;BMP180;21687;48.900;9.188;2023-02-01T08:35:42;98979.00;;;5.50
35582;BMP180;21687;48.900;9.188;2023-02-01T08:38:28;98983.00;;;5.50
35582;BMP180;21687;48.900;9.188;2023-02-01T08:41:18;98987.00;;;5.50
35582;BMP180;21687;48.900;9.188;2023-02-01T08:44:05;98987.00;;;5.40
35582;BMP180;21687;48.900;9.188;2023-02-01T08:46:51;98999.00;;;5.50
35582;BMP180;21687;48.900;9.188;2023-02-01T08:49:38;98998.00;;;5.50
35582;BMP180;21687;48.900;9.188;2023-02-01T08:52:24;98996.00;;;5.40
35582;BMP180;21687;48.900;9.188;2023-02-01T08:55:11;99018.00;;;5.40
35582;BMP180;21687;48.900;9.188;2023-02-01T08:57:58;99016.00;;;5.50
35582;BMP180;21687;48.900;9.188;2023-02-01T09:00:45;99019.00;;;5.40
35582;BMP180;21687;48.900;9.188;2023-02-01T09:03:31;99012.00;;;5.40
35582;BMP180;21687;48.900;9.188;2023-02-01T09:06:18;99019.00;;;5.40
35582;BMP180;21687;48.900;9.188;2023-02-01T09:09:04;99017.00;;;5.40
35582;BMP180;21687;48.900;9.188;2023-02-01T09:11:51;99023.00;;;5.30
35582;BMP180;21687;48.900;9.188;2023-02-01T09:14:37;99021.00;;;5.40
35582;BMP180;21687;48.900;9.188;2023-02-01T09:17:27;99031.00;;;5.50
35582;BMP180;21687;48.900;9.188;2023-02-01T09:20:14;99023.00;;;5.50
35582;BMP180;21687;48.900;9.188;2023-02-01T09:23:01;99034.00;;;5.60
35582;BMP180;21687;48.900;9.188;2023-02-01T09:25:48;99025.00;;;5.60
35582;BMP180;21687;48.900;9.188;2023-02-01T09:28:37;99016.00;;;5.80
35582;BMP180;21687;48.900;9.188;2023-02-01T09:31:23;99020.00;;;5.90
35582;BMP180;21687;48.900;9.188;2023-02-01T09:34:14;99020.00;;;5.80
35582;BMP180;21687;48.900;9.188;2023-02-01T09:37:01;99021.00;;;5.70
35582;BMP180;21687;48.900;9.188;2023-02-01T09:39:48;99027.00;;;5.60
35582;BMP180;21687;48.900;9.188;2023-02-01T09:43:02;99028.00;;;5.60
35582;BMP180;21687;48.900;9.188;2023-02-01T09:46:03;99032.00;;;5.60
35582;BMP180;21687;48.900;9.188;2023-02-01T09:49:00;99019.00;;;5.80
35582;BMP180;21687;48.900;9.188;2023-02-01T09:51:49;99036.00;;;5.80
35582;BMP180;21687;48.900;9.188;2023-02-01T09:54:59;99017.00;;;5.90
35582;BMP180;21687;48.900;9.188;2023-02-01T09:58:05;99027.00;;;5.90
35582;BMP180;21687;48.900;9.188;2023-02-01T10:00:56;99029.00;;;5.90
35582;BMP180;21687;48.900;9.188;2023-02-01T10:03:43;99038.00;;;5.90
35582;BMP180;21687;48.900;9.188;2023-02-01T10:10:15;99014.00;;;5.80
35582;BMP180;21687;48.900;9.188;2023-02-01T10:13:39;99040.00;;;5.80
35582;BMP180;21687;48.900;9.188;2023-02-01T10:16:56;99057.00;;;6.00
35582;BMP180;21687;48.900;9.188;2023-02-01T10:20:07;99062.00;;;6.00
35582;BMP180;21687;48.900;9.188;2023-02-01T10:26:12;99061.00;;;6.00
35582;BMP180;21687;48.900;9.188;2023-02-01T10:29:04;99077.00;;;6.10
35582;BMP180;21687;48.900;9.188;2023-02-01T10:31:55;99078.00;;;6.20
35582;BMP180;21687;48.900;9.188;2023-02-01T10:34:44;99044.00;;;6.20
35582;BMP180;21687;48.900;9.188;2023-02-01T10:37:33;99054.00;;;6.20
35582;BMP180;21687;48.900;9.188;2023-02-01T10:40:23;99070.00;;;6.00
35582;BMP180;21687;48.900;9.188;2023-02-01T10:43:10;99076.00;;;6.10
35582;BMP180;21687;48.900;9.188;2023-02-01T10:45:57;99074.00;;;6.10
35582;BMP180;21687;48.900;9.188;2023-02-01T10:48:43;99064.00;;;6.10
35582;BMP180;21687;48.900;9.188;2023-02-01T10:51:42;99069.00;;;6.10
35582;BMP180;21687;48.900;9.188;2023-02-01T10:54:35;99076.00;;;6.10
35582;BMP180;21687;48.900;9.188;2023-02-01T10:57:26;99064.00;;;6.00
35582;BMP180;21687;48.900;9.188;2023-02-01T11:00:21;99059.00;;;6.10
35582;BMP180;21687;48.900;9.188;2023-02-01T11:06:28;99067.00;;;6.10
35582;BMP180;21687;48.900;9.188;2023-02-01T11:09:19;99053.00;;;6.10
35582;BMP180;21687;48.900;9.188;2023-02-01T11:12:33;99056.00;;;6.00
35582;BMP180;21687;48.900;9.188;2023-02-01T11:15:25;99065.00;;;6.10
35582;BMP180;21687;48.900;9.188;2023-02-01T11:18:18;99032.00;;;6.10
35582;BMP180;21687;48.900;9.188;2023-02-01T11:21:06;99039.00;;;6.10
35582;BMP180;21687;48.900;9.188;2023-02-01T11:23:54;99032.00;;;6.20
35582;BMP180;21687;48.900;9.188;2023-02-01T11:26:41;99032.00;;;6.10
35582;BMP180;21687;48.900;9.188;2023-02-01T11:29:36;99028.00;;;6.10
35582;BMP180;21687;48.900;9.188;2023-02-01T11:32:24;99022.00;;;6.10
35582;BMP180;21687;48.900;9.188;2023-02-01T11:35:15;99014.00;;;6.20
35582;BMP180;21687;48.900;9.188;2023-02-01T11:38:15;99010.00;;;6.20
35582;BMP180;21687;48.900;9.188;2023-02-01T11:41:24;98998.00;;;6.10
35582;BMP180;21687;48.900;9.188;2023-02-01T11:44:23;98998.00;;;6.20
35582;BMP180;21687;48.900;9.188;2023-02-01T11:47:39;98993.00;;;6.20
35582;BMP180;21687;48.900;9.188;2023-02-01T12:07:23;98974.00;;;6.40
35582;BMP180;21687;48.900;9.188;2023-02-01T12:38:56;98976.00;;;6.20
35582;BMP180;21687;48.900;9.188;2023-02-01T12:41:53;98983.00;;;6.20
35582;BMP180;21687;48.900;9.188;2023-02-01T12:44:57;98986.00;;;6.40
35582;BMP180;21687;48.900;9.188;2023-02-01T12:47:55;98995.00;;;6.30
35582;BMP180;21687;48.900;9.188;2023-02-01T12:50:56;99000.00;;;6.20
35582;BMP180;21687;48.900;9.188;2023-02-01T12:57:25;98977.00;;;6.10
35582;BMP180;21687;48.900;9.188;2023-02-01T13:00:30;98964.00;;;6.10
35582;BMP180;21687;48.900;9.188;2023-02-01T13:03:55;98975.00;;;6.10
35582;BMP180;21687;48.900;9.188;2023-02-01T13:07:01;98974.00;;;6.10
35582;BMP180;21687;48.900;9.188;2023-02-01T13:12:59;98976.00;;;5.80
35582;BMP180;21687;48.900;9.188;2023-02-01T13:15:57;98963.00;;;5.70
35582;BMP180;21687;48.900;9.188;2023-02-01T13:18:50;98971.00;;;5.80
35582;BMP180;21687;48.900;9.188;2023-02-01T13:21:42;98961.00;;;5.80
35582;BMP180;21687;48.900;9.188;2023-02-01T13:24:45;98967.00;;;5.90
35582;BMP180;21687;48.900;9.188;2023-02-01T13:27:33;98961.00;;;5.90
35582;BMP180;21687;48.900;9.188;2023-02-01T13:30:23;98952.00;;;5.90
35582;BMP180;21687;48.900;9.188;2023-02-01T13:39:54;98945.00;;;5.80
35582;BMP180;21687;48.900;9.188;2023-02-01T13:42:49;98929.00;;;5.80
35582;BMP180;21687;48.900;9.188;2023-02-01T13:45:42;98935.00;;;5.90
35582;BMP180;21687;48.900;9.188;2023-02-01T13:49:13;98937.00;;;6.00
35582;BMP180;21687;48.900;9.188;2023-02-01T13:51:50;98928.00;;;6.00
35582;BMP180;21687;48.900;9.188;2023-02-01T13:54:39;98934.00;;;6.10
35582;BMP180;21687;48.900;9.188;2023-02-01T13:57:59;98932.00;;;6.20
35582;BMP180;21687;48.900;9.188;2023-02-01T14:00:48;98928.00;;;6.30
35582;BMP180;21687;48.900;9.188;2023-02-01T14:03:45;98939.00;;;6.20
35582;BMP180;21687;48.900;9.188;2023-02-01T14:06:34;98935.00;;;6.20
35582;BMP180;21687;48.900;9.188;2023-02-01T14:09:33;98946.00;;;6.00
35582;BMP180;21687;48.900;9.188;2023-02-01T14:12:44;98944.00;;;5.90
35582;BMP180;21687;48.900;9.188;2023-02-01T14:15:30;98943.00;;;5.90
35582;BMP180;21687;48.900;9.188;2023-02-01T14:18:56;98939.00;;;5.80
35582;BMP180;21687;48.900;9.188;2023-02-01T14:21:51;98932.00;;;5.80
35582;BMP180;21687;48.900;9.188;2023-02-01T14:24:54;98944.00;;;5.80
35582;BMP180;21687;48.900;9.188;2023-02-01T14:27:41;98942.00;;;5.80
35582;BMP180;21687;48.900;9.188;2023-02-01T14:30:27;98954.00;;;5.70
35582;BMP180;21687;48.900;9.188;2023-02-01T14:33:25;98950.00;;;5.70
35582;BMP180;21687;48.900;9.188;2023-02-01T14:36:14;98957.00;;;5.70
35582;BMP180;21687;48.900;9.188;2023-02-01T14:39:01;98954.00;;;5.70
35582;BMP180;21687;48.900;9.188;2023-02-01T14:41:47;98951.00;;;5.70
35582;BMP180;21687;48.900;9.188;2023-02-01T14:44:38;98950.00;;;5.70
35582;BMP180;21687;48.900;9.188;2023-02-01T14:47:28;98956.00;;;5.70
35582;BMP180;21687;48.900;9.188;2023-02-01T14:53:28;98960.00;;;5.60
35582;BMP180;21687;48.900;9.188;2023-02-01T14:56:17;98968.00;;;5.60
35582;BMP180;21687;48.900;9.188;2023-02-01T14:59:14;98960.00;;;5.60
35582;BMP180;21687;48.900;9.188;2023-02-01T15:02:07;98949.00;;;5.60
35582;BMP180;21687;48.900;9.188;2023-02-01T15:05:25;98955.00;;;5.50
35582;BMP180;21687;48.900;9.188;2023-02-01T15:08:18;98956.00;;;5.50
35582;BMP180;21687;48.900;9.188;2023-02-01T15:11:14;98955.00;;;5.40
35582;BMP180;21687;48.900;9.188;2023-02-01T15:14:01;98963.00;;;5.50
35582;BMP180;21687;48.900;9.188;2023-02-01T15:16:48;98959.00;;;5.50
35582;BMP180;21687;48.900;9.188;2023-02-01T15:19:39;98961.00;;;5.50
35582;BMP180;21687;48.900;9.188;2023-02-01T15:22:38;98969.00;;;5.50
35582;BMP180;21687;48.900;9.188;2023-02-01T15:28:14;98974.00;;;5.50
35582;BMP180;21687;48.900;9.188;2023-02-01T15:31:04;98973.00;;;5.50
35582;BMP180;21687;48.900;9.188;2023-02-01T15:33:57;98975.00;;;5.60
35582;BMP180;21687;48.900;9.188;2023-02-01T15:36:44;98975.00;;;5.60
35582;BMP180;21687;48.900;9.188;2023-02-01T15:39:31;98976.00;;;5.60
35582;BMP180;21687;48.900;9.188;2023-02-01T15:42:18;98983.00;;;5.60
35582;BMP180;21687;48.900;9.188;2023-02-01T15:45:20;98971.00;;;5.60
35582;BMP180;21687;48.900;9.188;2023-02-01T15:48:18;98973.00;;;5.70
35582;BMP180;21687;48.900;9.188;2023-02-01T15:51:10;98982.00;;;5.60
35582;BMP180;21687;48.900;9.188;2023-02-01T15:54:01;98981.00;;;5.60
35582;BMP180;21687;48.900;9.188;2023-02-01T15:56:53;98994.00;;;5.60
35582;BMP180;21687;48.900;9.188;2023-02-01T15:59:45;98989.00;;;5.60
35582;BMP180;21687;48.900;9.188;2023-02-01T16:02:37;98985.00;;;5.60
35582;BMP180;21687;48.900;9.188;2023-02-01T16:05:42;98992.00;;;5.60
35582;BMP180;21687;48.900;9.188;2023-02-01T16:08:30;98990.00;;;5.50
35582;BMP180;21687;48.900;9.188;2023-02-01T16:15:01;98971.00;;;5.50
35582;BMP180;21687;48.900;9.188;2023-02-01T16:17:48;98992.00;;;5.50
35582;BMP180;21687;48.900;9.188;2023-02-01T16:20:36;98978.00;;;5.50
35582;BMP180;21687;48.900;9.188;2023-02-01T16:23:22;98982.00;;;5.50
35582;BMP180;21687;48.900;9.188;2023-02-01T16:26:09;98980.00;;;5.50
35582;BMP180;21687;48.900;9.188;2023-02-01T16:28:56;98996.00;;;5.50
35582;BMP180;21687;48.900;9.188;2023-02-01T16:31:43;98983.00;;;5.50
35582;BMP180;21687;48.900;9.188;2023-02-01T16:34:30;98990.00;;;5.60
35582;BMP180;21687;48.900;9.188;2023-02-01T16:37:21;98996.00;;;5.50
35582;BMP180;21687;48.900;9.188;2023-02-01T16:40:17;99005.00;;;5.50
35582;BMP180;21687;48.900;9.188;2023-02-01T16:43:13;99001.00;;;5.50
35582;BMP180;21687;48.900;9.188;2023-02-01T16:46:01;98999.00;;;5.50
35582;BMP180;21687;48.900;9.188;2023-02-01T16:48:58;98998.00;;;5.50
35582;BMP180;21687;48.900;9.188;2023-02-01T16:51:45;98999.00;;;5.50
35582;BMP180;21687;48.900;9.188;2023-02-01T16:54:31;99000.00;;;5.50
35582;BMP180;21687;48.900;9.188;2023-02-01T16:57:19;98996.00;;;5.40
35582;BMP180;21687;48.900;9.188;2023-02-01T17:00:10;98992.00;;;5.40
35582;BMP180;21687;48.900;9.188;2023-02-01T17:02:57;99006.00;;;5.40
35582;BMP180;21687;48.900;9.188;2023-02-01T17:05:49;99007.00;;;5.40
35582;BMP180;21687;48.900;9.188;2023-02-01T17:08:38;98999.00;;;5.40
35582;BMP180;21687;48.900;9.188;2023-02-01T17:11:26;99007.00;;;5.40
35582;BMP180;21687;48.900;9.188;2023-02-01T17:14:21;99001.00;;;5.40
35582;BMP180;21687;48.900;9.188;2023-02-01T17:17:08;99000.00;;;5.40
35582;BMP180;21687;48.900;9.188;2023-02-01T17:19:55;99001.00;;;5.40
35582;BMP180;21687;48.900;9.188;2023-02-01T17:22:42;99006.00;;;5.40
35582;BMP180;21687;48.900;9.188;2023-02-01T17:25:29;99017.00;;;5.40
35582;BMP180;21687;48.900;9.188;2023-02-01T17:28:17;99001.00;;;5.40
35582;BMP180;21687;48.900;9.188;2023-02-01T17:31:03;99017.00;;;5.50
35582;BMP180;21687;48.900;9.188;2023-02-01T17:33:50;99004.00;;;5.50
35582;BMP180;21687;48.900;9.188;2023-02-01T17:36:37;99006.00;;;5.40
35582;BMP180;21687;48.900;9.188;2023-02-01T17:39:25;99009.00;;;5.50
35582;BMP180;21687;48.900;9.188;2023-02-01T17:42:30;98995.00;;;5.50
35582;BMP180;21687;48.900;9.188;2023-02-01T17:45:32;98997.00;;;5.50
35582;BMP180;21687;48.900;9.188;2023-02-01T17:48:20;99013.00;;;5.50
35582;BMP180;21687;48.900;9.188;2023-02-01T17:51:27;99012.00;;;5.50
35582;BMP180;21687;48.900;9.188;2023-02-01T17:54:15;98994.00;;;5.50
35582;BMP180;21687;48.900;9.188;2023-02-01T17:57:04;98997.00;;;5.50
35582;BMP180;21687;48.900;9.188;2023-02-01T17:59:55;99004.00;;;5.50
35582;BMP180;21687;48.900;9.188;2023-02-01T18:02:42;99007.00;;;5.50
35582;BMP180;21687;48.900;9.188;2023-02-01T18:05:38;98984.00;;;5.50
35582;BMP180;21687;48.900;9.188;2023-02-01T18:08:28;99006.00;;;5.60
35582;BMP180;21687;48.900;9.188;2023-02-01T18:11:23;98955.00;;;5.50
35582;BMP180;21687;48.900;9.188;2023-02-01T18:14:12;99010.00;;;5.50
35582;BMP180;21687;48.900;9.188;2023-02-01T18:16:58;99008.00;;;5.50
35582;BMP180;21687;48.900;9.188;2023-02-01T18:19:45;99011.00;;;5.50
35582;BMP180;21687;48.900;9.188;2023-02-01T18:22:31;99014.00;;;5.50